createdAt,value
2023-03-29T00:00:02.607Z,1022.5
2023-03-29T00:01:03.124Z,1022.5
2023-03-29T00:03:02.164Z,1022.6
2023-03-29T00:04:03.612Z,1022.5
2023-03-29T00:05:02.456Z,1022.5
2023-03-29T00:06:02.311Z,1022.4
2023-03-29T00:07:02.247Z,1022.4
2023-03-29T00:08:02.184Z,1022.5
2023-03-29T00:09:02.356Z,1022.5
2023-03-29T00:10:02.203Z,1022.5
2023-03-29T00:11:02.835Z,1022.5
2023-03-29T00:12:02.084Z,1022.5
2023-03-29T00:13:01.773Z,1022.4
2023-03-29T00:14:01.739Z,1022.5
2023-03-29T00:15:01.650Z,1022.5
2023-03-29T00:16:01.676Z,1022.5
2023-03-29T00:17:02.769Z,1022.5
2023-03-29T00:18:02.685Z,1022.6
2023-03-29T00:19:02.533Z,1022.5
2023-03-29T00:20:02.472Z,1022.5
2023-03-29T00:21:03.264Z,1022.6
2023-03-29T00:22:02.056Z,1022.6
2023-03-29T00:23:02.055Z,1022.6
2023-03-29T00:24:01.939Z,1022.5
2023-03-29T00:25:01.949Z,1022.6
2023-03-29T00:26:01.812Z,1022.6
2023-03-29T00:27:01.865Z,1022.6
2023-03-29T00:28:01.754Z,1022.6
2023-03-29T00:29:01.798Z,1022.6
2023-03-29T00:30:01.653Z,1022.6
2023-03-29T00:31:03.575Z,1022.6
2023-03-29T00:33:02.266Z,1022.6
2023-03-29T00:34:01.907Z,1022.5
2023-03-29T00:35:01.955Z,1022.6
2023-03-29T00:36:02.044Z,1022.5
2023-03-29T00:37:01.904Z,1022.6
2023-03-29T00:38:01.795Z,1022.5
2023-03-29T00:39:01.863Z,1022.5
2023-03-29T00:40:01.691Z,1022.5
2023-03-29T00:41:02.650Z,1022.5
2023-03-29T00:42:02.533Z,1022.5
2023-03-29T00:43:02.384Z,1022.4
2023-03-29T00:44:02.569Z,1022.4
2023-03-29T00:45:02.285Z,1022.5
2023-03-29T00:46:02.469Z,1022.5
2023-03-29T00:47:02.054Z,1022.4
2023-03-29T00:48:02.303Z,1022.5
2023-03-29T00:49:02.048Z,1022.4
2023-03-29T00:50:02.100Z,1022.4
2023-03-29T00:51:02.751Z,1022.5
2023-03-29T00:52:02.495Z,1022.4
2023-03-29T00:53:02.564Z,1022.4
2023-03-29T00:54:02.441Z,1022.4
2023-03-29T00:55:02.447Z,1022.4
2023-03-29T00:56:02.297Z,1022.4
2023-03-29T00:57:02.300Z,1022.4
2023-03-29T00:58:02.256Z,1022.4
2023-03-29T00:59:02.247Z,1022.4
2023-03-29T01:00:02.324Z,1022.4
2023-03-29T01:01:03.606Z,1022.4
2023-03-29T01:02:02.029Z,1022.4
2023-03-29T01:03:02.322Z,1022.4
2023-03-29T01:04:02.107Z,1022.4
2023-03-29T01:05:02.076Z,1022.4
2023-03-29T01:06:01.868Z,1022.4
2023-03-29T01:07:01.988Z,1022.4
2023-03-29T01:08:01.742Z,1022.3
2023-03-29T01:09:01.841Z,1022.4
2023-03-29T01:10:01.654Z,1022.3
2023-03-29T01:11:03.735Z,1022.3
2023-03-29T01:12:01.631Z,1022.3
2023-03-29T01:13:02.624Z,1022.3
2023-03-29T01:14:02.516Z,1022.3
2023-03-29T01:15:02.906Z,1022.3
2023-03-29T01:16:02.788Z,1022.2
2023-03-29T01:17:02.548Z,1022.3
2023-03-29T01:18:02.759Z,1022.3
2023-03-29T01:19:02.623Z,1022.3
2023-03-29T01:20:02.551Z,1022.3
2023-03-29T01:21:02.831Z,1022.3
2023-03-29T01:22:02.685Z,1022.3
2023-03-29T01:23:02.580Z,1022.3
2023-03-29T01:24:02.618Z,1022.3
2023-03-29T01:25:02.466Z,1022.3
2023-03-29T01:26:02.495Z,1022.3
2023-03-29T01:27:02.389Z,1022.3
2023-03-29T01:28:02.410Z,1022.3
2023-03-29T01:29:02.366Z,1022.3
2023-03-29T01:30:02.238Z,1022.3
2023-03-29T01:31:03.056Z,1022.3
2023-03-29T01:32:02.011Z,1022.2
2023-03-29T01:33:02.052Z,1022.2
2023-03-29T01:34:01.711Z,1022.2
2023-03-29T01:35:01.733Z,1022.2
2023-03-29T01:36:01.903Z,1022.2
2023-03-29T01:37:02.673Z,1022.2
2023-03-29T01:38:02.601Z,1022.2
2023-03-29T01:39:02.690Z,1022.2
2023-03-29T01:40:02.572Z,1022.1
2023-03-29T01:41:03.235Z,1022.1
2023-03-29T01:42:02.289Z,1022.1
2023-03-29T01:43:02.335Z,1022.1
2023-03-29T01:44:02.300Z,1022
2023-03-29T01:45:02.137Z,1022.1
2023-03-29T01:46:02.262Z,1022.1
2023-03-29T01:47:02.055Z,1022.1
2023-03-29T01:48:02.416Z,1022.1
2023-03-29T01:49:02.094Z,1022.1
2023-03-29T01:50:02.149Z,1022
2023-03-29T01:51:02.951Z,1022
2023-03-29T01:52:01.738Z,1022
2023-03-29T01:53:01.754Z,1022.1
2023-03-29T01:54:02.713Z,1022
2023-03-29T01:55:02.603Z,1022
2023-03-29T01:56:02.635Z,1022
2023-03-29T01:57:02.646Z,1022
2023-03-29T01:58:02.576Z,1022
2023-03-29T01:59:02.468Z,1022
2023-03-29T02:00:03.618Z,1021.9
2023-03-29T02:01:03.319Z,1022
2023-03-29T02:02:02.579Z,1022
2023-03-29T02:03:02.922Z,1022
2023-03-29T02:04:01.547Z,1022
2023-03-29T02:05:02.600Z,1022
2023-03-29T02:06:02.634Z,1022
2023-03-29T02:07:02.541Z,1022
2023-03-29T02:08:02.494Z,1022
2023-03-29T02:09:02.496Z,1022
2023-03-29T02:10:02.436Z,1022
2023-03-29T02:11:03.349Z,1022
2023-03-29T02:12:02.228Z,1022.1
2023-03-29T02:13:02.040Z,1022.1
2023-03-29T02:14:02.047Z,1022
2023-03-29T02:15:01.852Z,1022.1
2023-03-29T02:16:02.034Z,1022
2023-03-29T02:17:01.642Z,1022
2023-03-29T02:18:01.841Z,1022
2023-03-29T02:19:02.683Z,1022
2023-03-29T02:20:02.540Z,1022
2023-03-29T02:21:03.412Z,1022
2023-03-29T02:22:02.328Z,1022.1
2023-03-29T02:23:02.366Z,1022.1
2023-03-29T02:24:02.260Z,1022.1
2023-03-29T02:25:02.065Z,1022
2023-03-29T02:26:02.135Z,1022.1
2023-03-29T02:27:02.028Z,1022.1
2023-03-29T02:28:02.078Z,1022.1
2023-03-29T02:29:02.030Z,1022.1
2023-03-29T02:30:02.062Z,1022.1
2023-03-29T02:31:02.738Z,1022.1
2023-03-29T02:32:02.365Z,1022.1
2023-03-29T02:33:02.784Z,1022.1
2023-03-29T02:34:02.540Z,1022
2023-03-29T02:35:02.381Z,1022
2023-03-29T02:36:02.541Z,1022
2023-03-29T02:37:02.392Z,1022
2023-03-29T02:38:02.221Z,1022
2023-03-29T02:39:02.311Z,1022
2023-03-29T02:40:02.106Z,1022
2023-03-29T02:41:03.028Z,1022
2023-03-29T02:42:01.789Z,1022
2023-03-29T02:43:01.837Z,1022
2023-03-29T02:44:01.638Z,1022
2023-03-29T02:45:02.074Z,1022.1
2023-03-29T02:46:01.885Z,1022.1
2023-03-29T02:47:02.515Z,1022.1
2023-03-29T02:48:02.570Z,1022.1
2023-03-29T02:49:02.392Z,1022.1
2023-03-29T02:50:02.361Z,1022.1
2023-03-29T02:51:02.909Z,1022.2
2023-03-29T02:52:01.747Z,1022.2
2023-03-29T02:53:01.827Z,1022.1
2023-03-29T02:54:01.628Z,1022.2
2023-03-29T02:55:02.700Z,1022.1
2023-03-29T02:56:02.676Z,1022.2
2023-03-29T02:57:02.771Z,1022.1
2023-03-29T02:58:02.501Z,1022
2023-03-29T02:59:02.541Z,1022.1
2023-03-29T03:00:02.429Z,1022
2023-03-29T03:01:03.539Z,1022
2023-03-29T03:03:02.808Z,1022.1
2023-03-29T03:04:02.782Z,1022.1
2023-03-29T03:05:02.514Z,1022.1
2023-03-29T03:06:02.586Z,1022.1
2023-03-29T03:07:02.456Z,1022.1
2023-03-29T03:08:02.484Z,1022
2023-03-29T03:09:02.408Z,1022.1
2023-03-29T03:10:02.501Z,1022.1
2023-03-29T03:11:03.480Z,1022.2
2023-03-29T03:12:02.399Z,1022.1
2023-03-29T03:13:02.338Z,1022.1
2023-03-29T03:14:02.234Z,1022.1
2023-03-29T03:15:02.114Z,1022.1
2023-03-29T03:16:02.276Z,1022.1
2023-03-29T03:17:05.247Z,1022.1
2023-03-29T03:18:02.034Z,1022.1
2023-03-29T03:19:01.938Z,1022.1
2023-03-29T03:20:01.798Z,1022.1
2023-03-29T03:21:02.909Z,1022.1
2023-03-29T03:22:01.709Z,1022.1
2023-03-29T03:23:01.698Z,1022.1
2023-03-29T03:24:03.039Z,1022.1
2023-03-29T03:25:01.632Z,1022.1
2023-03-29T03:26:01.700Z,1022.1
2023-03-29T03:27:02.651Z,1022.1
2023-03-29T03:28:02.528Z,1022
2023-03-29T03:29:02.522Z,1022.1
2023-03-29T03:30:02.472Z,1022
2023-03-29T03:31:03.172Z,1022
2023-03-29T03:33:02.151Z,1022.1
2023-03-29T03:34:01.826Z,1022
2023-03-29T03:35:01.860Z,1022.1
2023-03-29T03:36:02.013Z,1022
2023-03-29T03:37:01.952Z,1022
2023-03-29T03:38:01.636Z,1022
2023-03-29T03:39:02.717Z,1022
2023-03-29T03:40:02.626Z,1022
2023-03-29T03:41:03.346Z,1022
2023-03-29T03:42:02.067Z,1022
2023-03-29T03:43:02.159Z,1022
2023-03-29T03:44:01.985Z,1022.1
2023-03-29T03:45:02.040Z,1022
2023-03-29T03:46:02.271Z,1022
2023-03-29T03:47:01.909Z,1022.1
2023-03-29T03:48:02.084Z,1022
2023-03-29T03:49:01.815Z,1022
2023-03-29T03:50:01.845Z,1022
2023-03-29T03:51:02.451Z,1022
2023-03-29T03:52:02.241Z,1021.9
2023-03-29T03:53:02.233Z,1022
2023-03-29T03:54:02.207Z,1022
2023-03-29T03:55:02.064Z,1022
2023-03-29T03:56:02.117Z,1022
2023-03-29T03:57:02.264Z,1022
2023-03-29T03:58:01.990Z,1022
2023-03-29T03:59:01.869Z,1022
2023-03-29T04:00:02.888Z,1022
2023-03-29T04:01:02.600Z,1022
2023-03-29T04:02:02.672Z,1022
2023-03-29T04:03:03.133Z,1022
2023-03-29T04:04:02.276Z,1022.1
2023-03-29T04:05:02.106Z,1022
2023-03-29T04:06:01.933Z,1022.1
2023-03-29T04:07:02.028Z,1022.1
2023-03-29T04:08:01.907Z,1022.1
2023-03-29T04:09:01.956Z,1022.1
2023-03-29T04:10:01.809Z,1022.1
2023-03-29T04:11:02.458Z,1022.1
2023-03-29T04:12:02.206Z,1022.1
2023-03-29T04:13:02.095Z,1022
2023-03-29T04:14:02.184Z,1022.1
2023-03-29T04:15:01.982Z,1022.1
2023-03-29T04:16:02.435Z,1022.1
2023-03-29T04:18:02.316Z,1022
2023-03-29T04:19:02.370Z,1022
2023-03-29T04:20:02.040Z,1022.1
2023-03-29T04:21:02.604Z,1022
2023-03-29T04:22:02.494Z,1022
2023-03-29T04:23:02.379Z,1021.9
2023-03-29T04:24:02.455Z,1022
2023-03-29T04:25:02.457Z,1021.9
2023-03-29T04:26:02.298Z,1021.9
2023-03-29T04:27:02.309Z,1021.9
2023-03-29T04:28:02.296Z,1022
2023-03-29T04:29:02.184Z,1022
2023-03-29T04:30:02.292Z,1021.9
2023-03-29T04:31:03.003Z,1021.9
2023-03-29T04:32:02.602Z,1021.9
2023-03-29T04:33:02.761Z,1022
2023-03-29T04:34:02.546Z,1021.9
2023-03-29T04:35:02.571Z,1021.9
2023-03-29T04:36:02.573Z,1021.9
2023-03-29T04:37:02.511Z,1021.9
2023-03-29T04:38:02.405Z,1021.9
2023-03-29T04:39:02.486Z,1021.9
2023-03-29T04:40:02.403Z,1021.9
2023-03-29T04:41:02.900Z,1021.9
2023-03-29T04:42:01.740Z,1021.9
2023-03-29T04:43:01.613Z,1021.9
2023-03-29T04:44:02.732Z,1021.9
2023-03-29T04:45:02.616Z,1022
2023-03-29T04:46:02.723Z,1021.9
2023-03-29T04:48:02.429Z,1021.9
2023-03-29T04:49:02.208Z,1021.9
2023-03-29T04:50:02.090Z,1021.9
2023-03-29T04:51:02.820Z,1022
2023-03-29T04:52:02.687Z,1021.9
2023-03-29T04:53:02.589Z,1021.9
2023-03-29T04:54:02.628Z,1022
2023-03-29T04:55:02.488Z,1021.9
2023-03-29T04:56:02.522Z,1021.9
2023-03-29T04:57:02.560Z,1022
2023-03-29T04:58:02.468Z,1021.9
2023-03-29T04:59:02.435Z,1021.9
2023-03-29T05:00:02.322Z,1021.9
2023-03-29T05:01:03.332Z,1021.9
2023-03-29T05:02:02.062Z,1021.8
2023-03-29T05:03:02.127Z,1021.9
2023-03-29T05:04:02.048Z,1021.9
2023-03-29T05:05:01.957Z,1021.9
2023-03-29T05:06:01.735Z,1021.9
2023-03-29T05:07:01.839Z,1021.9
2023-03-29T05:08:01.731Z,1021.9
2023-03-29T05:09:02.462Z,1021.9
2023-03-29T05:10:02.446Z,1021.9
2023-03-29T05:11:02.955Z,1021.9
2023-03-29T05:12:01.830Z,1021.9
2023-03-29T05:13:01.607Z,1021.9
2023-03-29T05:14:02.647Z,1021.9
2023-03-29T05:15:02.513Z,1021.9
2023-03-29T05:16:02.825Z,1021.9
2023-03-29T05:18:02.538Z,1021.9
2023-03-29T05:19:02.332Z,1021.9
2023-03-29T05:20:02.207Z,1022
2023-03-29T05:21:02.892Z,1022
2023-03-29T05:22:01.669Z,1022
2023-03-29T05:23:01.755Z,1022
2023-03-29T05:24:02.706Z,1022
2023-03-29T05:25:02.595Z,1022
2023-03-29T05:26:02.614Z,1022
2023-03-29T05:27:02.638Z,1022
2023-03-29T05:28:02.554Z,1022.1
2023-03-29T05:29:02.448Z,1022
2023-03-29T05:30:02.580Z,1022
2023-03-29T05:31:03.380Z,1022.1
2023-03-29T05:33:02.336Z,1022
2023-03-29T05:34:02.001Z,1022
2023-03-29T05:35:01.998Z,1022
2023-03-29T05:36:01.988Z,1022
2023-03-29T05:37:01.929Z,1021.9
2023-03-29T05:38:01.760Z,1021.9
2023-03-29T05:39:01.825Z,1022
2023-03-29T05:40:06.689Z,1021.9
2023-03-29T05:41:03.070Z,1022
2023-03-29T05:42:01.928Z,1022
2023-03-29T05:43:01.789Z,1022
2023-03-29T05:44:01.907Z,1022
2023-03-29T05:45:01.760Z,1022.1
2023-03-29T05:46:01.878Z,1022
2023-03-29T05:47:02.583Z,1022
2023-03-29T05:48:02.662Z,1022
2023-03-29T05:49:02.551Z,1022
2023-03-29T05:50:02.425Z,1022
2023-03-29T05:51:03.125Z,1022
2023-03-29T05:52:01.846Z,1022
2023-03-29T05:53:01.913Z,1022
2023-03-29T05:54:01.699Z,1021.9
2023-03-29T05:55:01.807Z,1022
2023-03-29T05:56:01.680Z,1022
2023-03-29T05:57:02.723Z,1021.9
2023-03-29T05:58:02.538Z,1022
2023-03-29T05:59:02.549Z,1022
2023-03-29T06:00:02.570Z,1022
2023-03-29T06:01:03.156Z,1022
2023-03-29T06:03:22.202Z,1022
2023-03-29T06:04:02.406Z,1022
2023-03-29T06:05:02.228Z,1022
2023-03-29T06:06:02.084Z,1022
2023-03-29T06:07:02.006Z,1022
2023-03-29T06:08:02.017Z,1022.1
2023-03-29T06:09:01.864Z,1022.1
2023-03-29T06:10:01.924Z,1022.1
2023-03-29T06:11:05.780Z,1022.1
2023-03-29T06:12:02.629Z,1022.1
2023-03-29T06:13:03.850Z,1022.1
2023-03-29T06:14:02.470Z,1022.1
2023-03-29T06:15:02.473Z,1022.1
2023-03-29T06:16:02.439Z,1022.1
2023-03-29T06:17:02.468Z,1022.1
2023-03-29T06:18:02.598Z,1022.1
2023-03-29T06:19:02.429Z,1022.1
2023-03-29T06:20:02.256Z,1022
2023-03-29T06:21:03.198Z,1022.1
2023-03-29T06:22:02.082Z,1022.1
2023-03-29T06:23:02.211Z,1022
2023-03-29T06:24:02.411Z,1022.1
2023-03-29T06:25:02.244Z,1022.1
2023-03-29T06:26:02.296Z,1022.1
2023-03-29T06:27:02.282Z,1022.1
2023-03-29T06:28:02.105Z,1022.1
2023-03-29T06:29:02.108Z,1022.1
2023-03-29T06:30:01.981Z,1022.1
2023-03-29T06:31:04.665Z,1022.1
2023-03-29T06:33:01.993Z,1022.1
2023-03-29T06:34:01.745Z,1022.1
2023-03-29T06:35:01.803Z,1022.1
2023-03-29T06:36:01.781Z,1022.1
2023-03-29T06:37:01.707Z,1022.2
2023-03-29T06:38:02.641Z,1022.1
2023-03-29T06:39:02.532Z,1022.2
2023-03-29T06:40:02.613Z,1022.2
2023-03-29T06:41:03.632Z,1022.2
2023-03-29T06:42:21.959Z,1022.2
2023-03-29T06:43:01.662Z,1022.2
2023-03-29T06:44:01.661Z,1022.2
2023-03-29T06:45:02.644Z,1022.2
2023-03-29T06:46:02.733Z,1022.2
2023-03-29T06:47:02.611Z,1022.2
2023-03-29T06:48:02.825Z,1022.2
2023-03-29T06:49:02.534Z,1022.2
2023-03-29T06:50:02.613Z,1022.2
2023-03-29T06:51:03.271Z,1022.1
2023-03-29T06:52:02.172Z,1022.2
2023-03-29T06:53:02.008Z,1022.2
2023-03-29T06:54:02.049Z,1022.2
2023-03-29T06:55:02.068Z,1022.2
2023-03-29T06:56:01.900Z,1022.2
2023-03-29T06:57:01.952Z,1022.2
2023-03-29T06:58:03.314Z,1022.2
2023-03-29T06:59:02.004Z,1022.2
2023-03-29T07:00:02.119Z,1022.2
2023-03-29T07:01:02.722Z,1022.2
2023-03-29T07:02:02.082Z,1022.2
2023-03-29T07:03:02.263Z,1022.2
2023-03-29T07:04:02.041Z,1022.2
2023-03-29T07:05:01.961Z,1022.2
2023-03-29T07:06:01.810Z,1022.2
2023-03-29T07:07:02.176Z,1022.2
2023-03-29T07:08:01.819Z,1022.2
2023-03-29T07:09:02.236Z,1022.2
2023-03-29T07:10:01.871Z,1022.2
2023-03-29T07:11:02.508Z,1022.1
2023-03-29T07:12:02.322Z,1022.2
2023-03-29T07:13:02.210Z,1022.2
2023-03-29T07:14:02.300Z,1022.2
2023-03-29T07:15:02.200Z,1022.3
2023-03-29T07:16:02.181Z,1022.2
2023-03-29T07:17:02.253Z,1022.2
2023-03-29T07:18:02.558Z,1022.2
2023-03-29T07:19:02.333Z,1022.2
2023-03-29T07:20:02.297Z,1022.2
2023-03-29T07:21:03.067Z,1022.1
2023-03-29T07:22:01.835Z,1022.2
2023-03-29T07:23:02.040Z,1022.2
2023-03-29T07:24:01.696Z,1022.1
2023-03-29T07:25:01.716Z,1022.1
2023-03-29T07:26:01.657Z,1022.1
2023-03-29T07:27:05.437Z,1022.1
2023-03-29T07:28:02.097Z,1022.1
2023-03-29T07:29:02.165Z,1022.2
2023-03-29T07:30:02.276Z,1022.2
2023-03-29T07:31:03.052Z,1022.2
2023-03-29T07:32:01.949Z,1022.1
2023-03-29T07:33:02.462Z,1022.1
2023-03-29T07:34:02.245Z,1022.1
2023-03-29T07:35:02.123Z,1022.2
2023-03-29T07:36:02.472Z,1022.2
2023-03-29T07:37:02.295Z,1022.1
2023-03-29T07:38:02.080Z,1022.1
2023-03-29T07:39:02.232Z,1022.1
2023-03-29T07:40:02.267Z,1022.1
2023-03-29T07:41:02.744Z,1022.1
2023-03-29T07:42:02.626Z,1022.1
2023-03-29T07:43:02.505Z,1022.1
2023-03-29T07:44:04.778Z,1022.1
2023-03-29T07:45:02.425Z,1022.1
2023-03-29T07:46:02.715Z,1022.3
2023-03-29T07:48:02.626Z,1022.1
2023-03-29T07:49:02.421Z,1022.1
2023-03-29T07:50:02.349Z,1022.2
2023-03-29T07:51:03.124Z,1022.1
2023-03-29T07:52:01.915Z,1022.2
2023-03-29T07:53:01.926Z,1022.2
2023-03-29T07:54:01.848Z,1022.2
2023-03-29T07:55:01.828Z,1022.2
2023-03-29T07:56:01.774Z,1022.2
2023-03-29T07:57:01.894Z,1022.2
2023-03-29T07:58:02.725Z,1022.1
2023-03-29T07:59:02.612Z,1022.2
2023-03-29T08:00:02.681Z,1022.1
2023-03-29T08:01:03.527Z,1022.1
2023-03-29T08:03:02.874Z,1022.1
2023-03-29T08:04:02.913Z,1022.1
2023-03-29T08:05:01.916Z,1022.2
2023-03-29T08:06:02.698Z,1022
2023-03-29T08:07:02.586Z,1022.1
2023-03-29T08:08:02.643Z,1022.1
2023-03-29T08:09:02.485Z,1022.1
2023-03-29T08:10:02.632Z,1022.1
2023-03-29T08:11:03.118Z,1022.1
2023-03-29T08:12:01.946Z,1022
2023-03-29T08:13:01.824Z,1022.1
2023-03-29T08:14:01.878Z,1022.1
2023-03-29T08:15:01.734Z,1022
2023-03-29T08:16:01.804Z,1022
2023-03-29T08:17:02.731Z,1022.1
2023-03-29T08:18:02.603Z,1022
2023-03-29T08:19:02.534Z,1022.1
2023-03-29T08:20:02.406Z,1022
2023-03-29T08:21:03.425Z,1022.1
2023-03-29T08:22:02.604Z,1022
2023-03-29T08:23:02.486Z,1022
2023-03-29T08:24:02.525Z,1022
2023-03-29T08:25:02.447Z,1022
2023-03-29T08:26:02.467Z,1022
2023-03-29T08:27:02.449Z,1022.1
2023-03-29T08:28:02.302Z,1022
2023-03-29T08:29:02.396Z,1021.9
2023-03-29T08:30:02.314Z,1021.9
2023-03-29T08:31:02.878Z,1021.9
2023-03-29T08:32:02.552Z,1021.9
2023-03-29T08:33:02.560Z,1021.9
2023-03-29T08:34:02.437Z,1021.9
2023-03-29T08:35:02.533Z,1021.9
2023-03-29T08:36:02.559Z,1021.9
2023-03-29T08:37:02.598Z,1021.9
2023-03-29T08:38:02.555Z,1022
2023-03-29T08:39:02.478Z,1021.9
2023-03-29T08:40:02.444Z,1021.9
2023-03-29T08:41:03.094Z,1021.9
2023-03-29T08:42:01.837Z,1022
2023-03-29T08:43:01.866Z,1021.9
2023-03-29T08:44:01.786Z,1021.9
2023-03-29T08:45:01.917Z,1021.9
2023-03-29T08:46:01.817Z,1021.9
2023-03-29T08:47:02.757Z,1021.8
2023-03-29T08:48:02.897Z,1021.8
2023-03-29T08:49:01.585Z,1021.9
2023-03-29T08:50:02.605Z,1021.9
2023-03-29T08:51:03.469Z,1021.9
2023-03-29T08:52:02.223Z,1021.8
2023-03-29T08:53:02.329Z,1021.9
2023-03-29T08:54:02.286Z,1021.8
2023-03-29T08:55:02.208Z,1021.9
2023-03-29T08:56:02.184Z,1021.8
2023-03-29T08:57:02.409Z,1021.8
2023-03-29T08:58:02.109Z,1021.7
2023-03-29T08:59:02.175Z,1021.8
2023-03-29T09:00:03.201Z,1021.8
2023-03-29T09:01:03.049Z,1021.7
2023-03-29T09:02:02.560Z,1021.6
2023-03-29T09:03:02.950Z,1021.7
2023-03-29T09:04:01.921Z,1021.7
2023-03-29T09:05:01.753Z,1021.7
2023-03-29T09:06:02.834Z,1021.6
2023-03-29T09:07:02.576Z,1021.7
2023-03-29T09:08:02.559Z,1021.7
2023-03-29T09:09:02.517Z,1021.6
2023-03-29T09:10:02.531Z,1021.7
2023-03-29T09:11:03.116Z,1021.7
2023-03-29T09:12:02.064Z,1021.7
2023-03-29T09:13:02.275Z,1021.6
2023-03-29T09:14:02.155Z,1021.6
2023-03-29T09:15:02.274Z,1021.7
2023-03-29T09:16:02.271Z,1021.7
2023-03-29T09:17:02.004Z,1021.6
2023-03-29T09:18:02.244Z,1021.7
2023-03-29T09:19:01.897Z,1021.7
2023-03-29T09:20:01.900Z,1021.7
2023-03-29T09:21:02.576Z,1021.6
2023-03-29T09:22:02.286Z,1021.5
2023-03-29T09:23:02.299Z,1021.6
2023-03-29T09:24:02.232Z,1021.6
2023-03-29T09:25:02.154Z,1021.7
2023-03-29T09:26:02.240Z,1021.6
2023-03-29T09:27:02.056Z,1021.6
2023-03-29T09:28:02.146Z,1021.6
2023-03-29T09:29:01.991Z,1021.6
2023-03-29T09:30:02.158Z,1021.6
2023-03-29T09:31:02.750Z,1021.6
2023-03-29T09:32:02.701Z,1021.5
2023-03-29T09:33:02.586Z,1021.5
2023-03-29T09:34:02.344Z,1021.4
2023-03-29T09:35:02.324Z,1021.4
2023-03-29T09:36:02.398Z,1021.5
2023-03-29T09:37:02.179Z,1021.4
2023-03-29T09:38:02.225Z,1021.5
2023-03-29T09:39:02.105Z,1021.4
2023-03-29T09:40:05.549Z,1021.4
2023-03-29T09:41:02.965Z,1021.4
2023-03-29T09:42:01.671Z,1021.3
2023-03-29T09:43:01.765Z,1021.4
2023-03-29T09:44:01.638Z,1021.4
2023-03-29T09:45:02.803Z,1021.4
2023-03-29T09:46:02.746Z,1021.5
2023-03-29T09:48:01.918Z,1021.3
2023-03-29T09:49:01.667Z,1021.4
2023-03-29T09:50:02.800Z,1021.5
2023-03-29T09:51:03.096Z,1021.4
2023-03-29T09:52:02.148Z,1021.4
2023-03-29T09:53:01.770Z,1021.4
2023-03-29T09:54:01.805Z,1021.4
2023-03-29T09:55:02.342Z,1021.4
2023-03-29T09:56:02.238Z,1021.4
2023-03-29T09:57:02.450Z,1021.5
2023-03-29T09:58:02.228Z,1021.4
2023-03-29T09:59:02.067Z,1021.4
2023-03-29T10:00:03.638Z,1021.3
2023-03-29T10:01:03.592Z,1021.4
2023-03-29T10:03:02.063Z,1021.4
2023-03-29T10:04:01.934Z,1021.3
2023-03-29T10:05:02.040Z,1021.3
2023-03-29T10:06:01.757Z,1021.3
2023-03-29T10:07:01.792Z,1021.3
2023-03-29T10:08:01.738Z,1021.3
2023-03-29T10:09:02.698Z,1021.3
2023-03-29T10:10:02.485Z,1021.3
2023-03-29T10:11:03.135Z,1021.2
2023-03-29T10:12:01.922Z,1021.4
2023-03-29T10:13:01.951Z,1021.3
2023-03-29T10:14:01.839Z,1021.3
2023-03-29T10:15:01.862Z,1021.3
2023-03-29T10:16:01.963Z,1021.3
2023-03-29T10:17:01.933Z,1021.3
2023-03-29T10:18:02.146Z,1021.2
2023-03-29T10:19:01.953Z,1021.3
2023-03-29T10:20:05.292Z,1021.2
2023-03-29T10:21:03.895Z,1021.3
2023-03-29T10:22:01.733Z,1021.3
2023-03-29T10:23:01.727Z,1021.2
2023-03-29T10:24:01.633Z,1021.2
2023-03-29T10:25:02.718Z,1021.2
2023-03-29T10:26:02.624Z,1021.2
2023-03-29T10:27:02.662Z,1021.2
2023-03-29T10:28:02.503Z,1021.2
2023-03-29T10:29:02.566Z,1021.2
2023-03-29T10:30:02.421Z,1021.2
2023-03-29T10:31:03.662Z,1021.4
2023-03-29T10:33:02.336Z,1021.1
2023-03-29T10:34:01.992Z,1021.2
2023-03-29T10:35:02.024Z,1021.2
2023-03-29T10:36:02.007Z,1021.2
2023-03-29T10:37:01.953Z,1021.2
2023-03-29T10:38:01.829Z,1021.2
2023-03-29T10:39:06.589Z,1021.2
2023-03-29T10:40:02.311Z,1021.2
2023-03-29T10:41:02.827Z,1021.1
2023-03-29T10:42:02.701Z,1021.1
2023-03-29T10:43:02.590Z,1021.1
2023-03-29T10:44:02.623Z,1021.1
2023-03-29T10:45:02.537Z,1021.1
2023-03-29T10:46:02.655Z,1021
2023-03-29T10:48:02.696Z,1021
2023-03-29T10:49:02.455Z,1021
2023-03-29T10:50:02.493Z,1020.9
2023-03-29T10:51:03.180Z,1021
2023-03-29T10:52:02.043Z,1021
2023-03-29T10:53:01.897Z,1021
2023-03-29T10:54:01.953Z,1021.1
2023-03-29T10:55:01.898Z,1021.1
2023-03-29T10:56:01.866Z,1020.9
2023-03-29T10:57:01.808Z,1021
2023-03-29T10:58:01.749Z,1021.1
2023-03-29T10:59:01.636Z,1020.9
2023-03-29T11:00:02.690Z,1021
2023-03-29T11:01:03.373Z,1020.9
2023-03-29T11:02:02.320Z,1020.8
2023-03-29T11:03:02.393Z,1021
2023-03-29T11:04:02.686Z,1020.9
2023-03-29T11:05:02.365Z,1020.9
2023-03-29T11:06:02.424Z,1020.8
2023-03-29T11:07:02.455Z,1020.7
2023-03-29T11:08:02.275Z,1020.9
2023-03-29T11:09:02.418Z,1020.7
2023-03-29T11:10:02.277Z,1020.7
2023-03-29T11:11:03.019Z,1020.7
2023-03-29T11:12:16.741Z,1020.7
2023-03-29T11:13:02.477Z,1020.7
2023-03-29T11:14:02.326Z,1020.7
2023-03-29T11:15:02.378Z,1020.7
2023-03-29T11:16:02.401Z,1020.6
2023-03-29T11:17:02.220Z,1020.7
2023-03-29T11:18:02.407Z,1020.6
2023-03-29T11:19:02.101Z,1020.6
2023-03-29T11:20:05.665Z,1020.6
2023-03-29T11:21:03.032Z,1020.5
2023-03-29T11:22:01.822Z,1020.5
2023-03-29T11:23:01.844Z,1020.7
2023-03-29T11:24:01.671Z,1020.5
2023-03-29T11:25:01.748Z,1020.5
2023-03-29T11:26:02.716Z,1020.5
2023-03-29T11:27:02.596Z,1020.7
2023-03-29T11:28:02.687Z,1020.4
2023-03-29T11:29:02.607Z,1020.3
2023-03-29T11:30:02.723Z,1020.4
2023-03-29T11:31:03.558Z,1020.4
2023-03-29T11:33:02.691Z,1020.4
2023-03-29T11:34:02.427Z,1020.4
2023-03-29T11:35:02.593Z,1020.4
2023-03-29T11:36:02.514Z,1020.4
2023-03-29T11:37:02.504Z,1020.4
2023-03-29T11:38:02.353Z,1020.4
2023-03-29T11:39:02.438Z,1020.3
2023-03-29T11:40:02.351Z,1020.3
2023-03-29T11:41:03.119Z,1020.3
2023-03-29T11:42:02.157Z,1020.3
2023-03-29T11:43:01.996Z,1020.3
2023-03-29T11:44:02.090Z,1020.3
2023-03-29T11:45:01.961Z,1020.2
2023-03-29T11:46:01.915Z,1020.2
2023-03-29T11:47:02.384Z,1020.2
2023-03-29T11:48:02.304Z,1020.3
2023-03-29T11:49:02.283Z,1020.2
2023-03-29T11:50:01.969Z,1020.2
2023-03-29T11:51:02.517Z,1020.1
2023-03-29T11:52:02.304Z,1020.1
2023-03-29T11:53:02.168Z,1020.1
2023-03-29T11:54:02.234Z,1020
2023-03-29T11:55:02.085Z,1020
2023-03-29T11:56:02.075Z,1020.1
2023-03-29T11:57:02.238Z,1020.1
2023-03-29T11:58:01.878Z,1020
2023-03-29T11:59:01.942Z,1020.1
2023-03-29T12:00:02.498Z,1020
2023-03-29T12:01:03.415Z,1020
2023-03-29T12:03:02.727Z,1020.2
2023-03-29T12:04:02.934Z,1020
2023-03-29T12:05:01.636Z,1020
2023-03-29T12:06:02.690Z,1020.1
2023-03-29T12:07:02.492Z,1020.1
2023-03-29T12:08:02.623Z,1020.1
2023-03-29T12:09:02.436Z,1020
2023-03-29T12:10:02.485Z,1020
2023-03-29T12:11:03.181Z,1020
2023-03-29T12:12:01.999Z,1020
2023-03-29T12:13:01.841Z,1020
2023-03-29T12:14:01.926Z,1020
2023-03-29T12:15:01.770Z,1019.9
2023-03-29T12:16:01.838Z,1019.9
2023-03-29T12:17:01.976Z,1020
2023-03-29T12:18:01.937Z,1020
2023-03-29T12:19:01.617Z,1020
2023-03-29T12:20:02.652Z,1020
2023-03-29T12:21:02.529Z,1019.9
2023-03-29T12:22:02.573Z,1020
2023-03-29T12:23:02.516Z,1019.9
2023-03-29T12:24:02.644Z,1020
2023-03-29T12:25:02.577Z,1020
2023-03-29T12:26:02.704Z,1020
2023-03-29T12:27:02.552Z,1019.8
2023-03-29T12:28:02.621Z,1019.9
2023-03-29T12:29:02.599Z,1019.9
2023-03-29T12:30:02.695Z,1020
2023-03-29T12:31:03.429Z,1019.9
2023-03-29T12:33:02.692Z,1019.8
2023-03-29T12:34:02.398Z,1019.8
2023-03-29T12:35:02.430Z,1019.8
2023-03-29T12:36:02.535Z,1019.8
2023-03-29T12:37:02.298Z,1019.8
2023-03-29T12:38:02.295Z,1019.9
2023-03-29T12:39:02.226Z,1019.8
2023-03-29T12:40:02.098Z,1019.7
2023-03-29T12:41:02.839Z,1019.8
2023-03-29T12:42:02.656Z,1019.7
2023-03-29T12:43:02.528Z,1019.8
2023-03-29T12:44:02.547Z,1019.7
2023-03-29T12:45:02.518Z,1019.6
2023-03-29T12:46:03.349Z,1019.7
2023-03-29T12:47:02.233Z,1019.7
2023-03-29T12:48:02.466Z,1019.8
2023-03-29T12:49:02.223Z,1019.5
2023-03-29T12:50:02.090Z,1019.6
2023-03-29T12:51:02.165Z,1019.7
2023-03-29T12:52:01.999Z,1019.7
2023-03-29T12:53:02.022Z,1019.7
2023-03-29T12:54:01.890Z,1019.6
2023-03-29T12:55:01.923Z,1019.6
2023-03-29T12:56:02.982Z,1019.5
2023-03-29T12:57:02.040Z,1019.6
2023-03-29T12:58:01.962Z,1019.6